createdAt,value
2018-05-13T00:00:23.834Z,99.99
2018-05-13T00:01:24.128Z,99.99
2018-05-13T00:02:38.804Z,99.99
2018-05-13T00:03:24.171Z,99.99
2018-05-13T00:04:24.203Z,99.99
2018-05-13T00:05:24.434Z,99.99
2018-05-13T00:06:24.233Z,99.99
2018-05-13T00:07:24.273Z,99.99
2018-05-13T00:08:24.281Z,99.99
2018-05-13T00:09:24.055Z,99.99
2018-05-13T00:11:24.366Z,99.99
2018-05-13T00:12:24.389Z,99.99
2018-05-13T00:13:24.399Z,99.99
2018-05-13T00:14:24.167Z,99.99
2018-05-13T00:15:24.452Z,99.99
2018-05-13T00:16:24.203Z,99.99
2018-05-13T00:17:24.504Z,99.99
2018-05-13T00:18:24.251Z,99.99
2018-05-13T00:19:24.539Z,99.99
2018-05-13T00:20:24.555Z,99.99
2018-05-13T00:21:24.599Z,99.99
2018-05-13T00:22:24.619Z,99.99
2018-05-13T00:23:24.627Z,99.99
2018-05-13T00:24:24.397Z,99.99
2018-05-13T00:25:24.675Z,99.99
2018-05-13T00:26:24.449Z,99.99
2018-05-13T00:27:24.715Z,99.99
2018-05-13T00:28:24.757Z,99.99
2018-05-13T00:30:24.791Z,99.99
2018-05-13T00:31:24.813Z,99.99
2018-05-13T00:32:24.834Z,99.99
2018-05-13T00:33:24.873Z,99.99
2018-05-13T00:34:39.539Z,99.99
2018-05-13T00:35:24.934Z,99.99
2018-05-13T00:36:24.926Z,99.99
2018-05-13T00:38:24.713Z,99.99
2018-05-13T00:39:24.994Z,99.99
2018-05-13T00:40:25.036Z,99.99
2018-05-13T00:41:25.049Z,99.99
2018-05-13T00:42:25.068Z,99.99
2018-05-13T00:43:25.113Z,99.99
2018-05-13T00:45:25.150Z,99.99
2018-05-13T00:46:25.175Z,99.99
2018-05-13T00:47:25.181Z,99.99
2018-05-13T00:48:25.221Z,99.99
2018-05-13T00:49:25.223Z,99.99
2018-05-13T00:50:39.982Z,99.99
2018-05-13T00:51:25.270Z,99.99
2018-05-13T00:52:25.310Z,99.99
2018-05-13T00:53:25.333Z,99.99
2018-05-13T00:54:25.386Z,99.99
2018-05-13T00:55:25.461Z,99.99
2018-05-13T00:56:25.385Z,99.99
2018-05-13T00:57:25.433Z,99.99
2018-05-13T00:58:25.437Z,99.99
2018-05-13T00:59:25.470Z,99.99
2018-05-13T01:00:25.477Z,99.99
2018-05-13T01:02:25.524Z,99.99
2018-05-13T01:03:25.544Z,99.99
2018-05-13T01:04:25.636Z,99.99
2018-05-13T01:05:25.613Z,99.99
2018-05-13T01:06:40.277Z,99.99
2018-05-13T01:07:25.641Z,99.99
2018-05-13T01:08:25.677Z,99.99
2018-05-13T01:09:25.695Z,99.99
2018-05-13T01:10:25.707Z,99.99
2018-05-13T01:11:25.488Z,99.99
2018-05-13T01:12:25.751Z,99.99
2018-05-13T01:13:25.778Z,99.99
2018-05-13T01:14:25.805Z,99.99
2018-05-13T01:16:25.860Z,99.99
2018-05-13T01:17:25.867Z,99.99
2018-05-13T01:18:25.901Z,99.99
2018-05-13T01:19:25.910Z,99.99
2018-05-13T01:20:25.952Z,99.99
2018-05-13T01:21:25.958Z,99.99
2018-05-13T01:22:40.645Z,99.99
2018-05-13T01:23:26.031Z,99.99
2018-05-13T01:24:26.032Z,99.99
2018-05-13T01:25:26.053Z,99.99
2018-05-13T01:26:26.071Z,99.99
2018-05-13T01:27:26.116Z,99.99
2018-05-13T01:28:26.123Z,99.99
2018-05-13T01:29:26.159Z,99.99
2018-05-13T01:30:26.165Z,99.99
2018-05-13T01:31:26.203Z,99.99
2018-05-13T01:32:26.208Z,99.99
2018-05-13T01:33:26.237Z,99.99
2018-05-13T01:34:25.996Z,99.99
2018-05-13T01:35:26.303Z,99.99
2018-05-13T01:36:26.306Z,99.99
2018-05-13T01:37:40.989Z,99.99
2018-05-13T01:38:26.352Z,99.99
2018-05-13T01:40:26.412Z,99.99
2018-05-13T01:41:26.424Z,99.99
2018-05-13T01:42:26.452Z,99.99
2018-05-13T01:43:26.471Z,99.99
2018-05-13T01:44:26.501Z,99.99
2018-05-13T01:46:26.547Z,99.99
2018-05-13T01:47:26.570Z,99.99
2018-05-13T01:48:26.580Z,99.99
2018-05-13T01:49:26.616Z,99.99
2018-05-13T01:50:26.638Z,99.99
2018-05-13T01:51:26.664Z,99.99
2018-05-13T01:52:26.686Z,99.99
2018-05-13T01:53:26.689Z,99.99
2018-05-13T01:54:26.457Z,99.99
2018-05-13T01:55:26.477Z,99.99
2018-05-13T01:56:26.774Z,99.99
2018-05-13T01:57:26.799Z,99.99
2018-05-13T01:58:26.806Z,99.99
2018-05-13T01:59:26.825Z,99.99
2018-05-13T02:00:26.849Z,99.99
2018-05-13T02:01:26.895Z,99.99
2018-05-13T02:02:26.903Z,99.99
2018-05-13T02:03:26.922Z,99.99
2018-05-13T02:04:26.695Z,99.99
2018-05-13T02:05:26.963Z,99.99
2018-05-13T02:06:27.004Z,99.99
2018-05-13T02:07:27.011Z,99.99
2018-05-13T02:08:27.048Z,99.99
2018-05-13T02:09:41.714Z,99.99
2018-05-13T02:10:27.077Z,99.99
2018-05-13T02:12:26.863Z,99.99
2018-05-13T02:13:27.160Z,99.99
2018-05-13T02:14:27.199Z,99.99
2018-05-13T02:15:26.946Z,99.99
2018-05-13T02:16:27.216Z,99.99
2018-05-13T02:17:27.236Z,99.99
2018-05-13T02:18:27.283Z,99.99
2018-05-13T02:19:27.301Z,99.99
2018-05-13T02:21:27.328Z,99.99
2018-05-13T02:22:27.368Z,99.99
2018-05-13T02:23:27.372Z,99.99
2018-05-13T02:24:27.149Z,99.99
2018-05-13T02:25:42.081Z,99.99
2018-05-13T02:26:27.458Z,99.99
2018-05-13T02:27:27.484Z,99.99
2018-05-13T02:28:27.485Z,99.99
2018-05-13T02:29:27.522Z,99.99
2018-05-13T02:30:27.536Z,99.99
2018-05-13T02:31:27.564Z,99.99
2018-05-13T02:32:27.606Z,99.99
2018-05-13T02:34:27.642Z,99.99
2018-05-13T02:35:27.399Z,99.99
2018-05-13T02:36:27.697Z,99.99
2018-05-13T02:37:27.725Z,99.99
2018-05-13T02:38:27.715Z,99.99
2018-05-13T02:39:27.765Z,99.99
2018-05-13T02:40:27.759Z,99.99
2018-05-13T02:41:42.446Z,99.99
2018-05-13T02:42:27.804Z,99.99
2018-05-13T02:43:27.865Z,99.99
2018-05-13T02:44:27.871Z,99.99
2018-05-13T02:45:27.876Z,99.99
2018-05-13T02:46:28.085Z,99.99
2018-05-13T02:47:27.919Z,99.99
2018-05-13T02:48:27.959Z,99.99
2018-05-13T02:49:27.706Z,99.99
2018-05-13T02:50:28.005Z,99.99
2018-05-13T02:51:28.013Z,99.99
2018-05-13T02:53:27.796Z,99.99
2018-05-13T02:54:27.820Z,99.99
2018-05-13T02:55:28.119Z,99.99
2018-05-13T02:56:28.129Z,99.99
2018-05-13T02:57:42.810Z,99.99
2018-05-13T02:58:28.174Z,99.99
2018-05-13T03:00:28.221Z,99.99
2018-05-13T03:01:28.253Z,99.99
2018-05-13T03:02:28.258Z,99.99
2018-05-13T03:03:28.304Z,99.99
2018-05-13T03:04:28.046Z,99.99
2018-05-13T03:05:28.349Z,99.99
2018-05-13T03:06:28.142Z,99.99
2018-05-13T03:07:28.395Z,99.99
2018-05-13T03:08:28.417Z,99.99
2018-05-13T03:09:28.159Z,99.99
2018-05-13T03:10:28.455Z,99.99
2018-05-13T03:11:28.216Z,99.99
2018-05-13T03:12:43.151Z,99.99
2018-05-13T03:13:28.513Z,99.99
2018-05-13T03:15:28.573Z,99.99
2018-05-13T03:16:28.583Z,99.99
2018-05-13T03:17:28.600Z,99.99
2018-05-13T03:18:28.626Z,99.99
2018-05-13T03:19:28.406Z,99.99
2018-05-13T03:20:28.677Z,99.99
2018-05-13T03:21:28.714Z,99.99
2018-05-13T03:22:28.714Z,99.99
2018-05-13T03:23:28.755Z,99.99
2018-05-13T03:24:28.758Z,99.99
2018-05-13T03:25:28.799Z,99.99
2018-05-13T03:26:28.808Z,99.99
2018-05-13T03:27:28.834Z,99.99
2018-05-13T03:28:28.850Z,99.99
2018-05-13T03:29:28.626Z,99.99
2018-05-13T03:30:28.898Z,99.99
2018-05-13T03:31:28.949Z,99.99
2018-05-13T03:32:28.956Z,99.99
2018-05-13T03:33:29.076Z,99.99
2018-05-13T03:34:28.985Z,99.99
2018-05-13T03:35:29.009Z,99.99
2018-05-13T03:36:29.050Z,99.99
2018-05-13T03:37:28.811Z,99.99
2018-05-13T03:39:28.862Z,99.99
2018-05-13T03:40:29.123Z,99.99
2018-05-13T03:41:29.162Z,99.99
2018-05-13T03:42:29.181Z,99.99
2018-05-13T03:43:29.209Z,99.99
2018-05-13T03:44:43.873Z,99.99
2018-05-13T03:45:29.245Z,99.99
2018-05-13T03:46:29.281Z,99.99
2018-05-13T03:47:29.294Z,99.99
2018-05-13T03:48:29.322Z,99.99
2018-05-13T03:49:29.329Z,99.99
2018-05-13T03:50:29.367Z,99.99
2018-05-13T03:51:29.377Z,99.99
2018-05-13T03:52:29.413Z,99.99
2018-05-13T03:53:29.429Z,99.99
2018-05-13T03:54:29.440Z,99.99
2018-05-13T03:55:29.465Z,99.99
2018-05-13T03:56:29.240Z,99.99
2018-05-13T03:57:29.512Z,99.99
2018-05-13T03:58:29.548Z,99.99
2018-05-13T03:59:29.554Z,99.99
2018-05-13T04:00:44.242Z,99.99
2018-05-13T04:01:29.602Z,99.99
2018-05-13T04:02:29.624Z,99.99
2018-05-13T04:03:29.693Z,99.99
2018-05-13T04:04:29.693Z,99.99
2018-05-13T04:05:29.711Z,99.99
2018-05-13T04:06:29.458Z,99.99
2018-05-13T04:07:29.874Z,99.99
2018-05-13T04:08:29.502Z,99.99
2018-05-13T04:09:29.538Z,99.99
2018-05-13T04:10:29.811Z,99.99
2018-05-13T04:11:29.584Z,99.99
2018-05-13T04:12:29.870Z,99.99
2018-05-13T04:13:29.879Z,99.99
2018-05-13T04:14:29.902Z,99.99
2018-05-13T04:15:29.669Z,99.99
2018-05-13T04:16:44.609Z,99.99
2018-05-13T04:17:29.976Z,99.99
2018-05-13T04:18:29.741Z,99.99
2018-05-13T04:19:30.019Z,99.99
2018-05-13T04:21:30.078Z,99.99
2018-05-13T04:22:30.104Z,99.99
2018-05-13T04:24:30.147Z,99.99
2018-05-13T04:25:30.159Z,99.99
2018-05-13T04:26:30.177Z,99.99
2018-05-13T04:27:30.213Z,99.99
2018-05-13T04:28:30.229Z,99.99
2018-05-13T04:29:30.262Z,99.99
2018-05-13T04:30:30.270Z,99.99
2018-05-13T04:31:30.315Z,99.99
2018-05-13T04:32:44.975Z,99.99
2018-05-13T04:33:30.337Z,99.99
2018-05-13T04:34:30.379Z,99.99
2018-05-13T04:35:30.130Z,99.99
2018-05-13T04:36:30.503Z,99.99
2018-05-13T04:37:30.430Z,99.99
2018-05-13T04:38:30.477Z,99.99
2018-05-13T04:39:30.478Z,99.99
2018-05-13T04:41:30.538Z,99.99
2018-05-13T04:42:30.567Z,99.99
2018-05-13T04:43:30.589Z,99.99
2018-05-13T04:44:30.600Z,99.99
2018-05-13T04:45:30.635Z,99.99
2018-05-13T04:46:30.644Z,99.99
2018-05-13T04:47:45.331Z,99.99
2018-05-13T04:48:30.696Z,99.99
2018-05-13T04:49:30.727Z,99.99
2018-05-13T04:50:30.738Z,99.78
2018-05-13T04:51:30.780Z,96.08
2018-05-13T04:52:30.787Z,93.33
2018-05-13T04:53:30.829Z,92.08
2018-05-13T04:54:30.835Z,89.29
2018-05-13T04:55:30.614Z,87.26
2018-05-13T04:56:30.885Z,86.63
2018-05-13T04:57:30.915Z,85.86
2018-05-13T04:58:30.687Z,85.67
2018-05-13T04:59:30.968Z,83.88
2018-05-13T05:00:31.006Z,83.34
2018-05-13T05:01:31.016Z,80.78
2018-05-13T05:02:31.061Z,80.05
2018-05-13T05:03:31.068Z,79.47
2018-05-13T05:04:31.099Z,77.86
2018-05-13T05:05:30.863Z,77.09
2018-05-13T05:06:31.170Z,75.29
2018-05-13T05:07:31.196Z,74.55
2018-05-13T05:08:31.208Z,73.72
2018-05-13T05:09:31.231Z,72.5
2018-05-13T05:10:31.261Z,72.11
2018-05-13T05:11:31.307Z,72.17
2018-05-13T05:12:31.321Z,71.24
2018-05-13T05:14:31.398Z,70.01
2018-05-13T05:15:31.400Z,69.89
2018-05-13T05:16:31.451Z,69.53
2018-05-13T05:17:31.472Z,69.43
2018-05-13T05:18:31.508Z,70.08
2018-05-13T05:19:46.179Z,69.15
2018-05-13T05:20:31.547Z,68.95
2018-05-13T05:21:31.595Z,67.98
2018-05-13T05:22:31.611Z,66.95
2018-05-13T05:23:31.653Z,66.3
2018-05-13T05:24:31.674Z,65.14
2018-05-13T05:25:31.718Z,65.37
2018-05-13T05:26:31.728Z,63.91
2018-05-13T05:28:31.789Z,63.75
2018-05-13T05:29:31.837Z,63.07
2018-05-13T05:31:31.620Z,62.19
2018-05-13T05:32:31.941Z,63.53
2018-05-13T05:33:31.940Z,64.11
2018-05-13T05:34:31.994Z,63.13
2018-05-13T05:35:46.758Z,62.36
2018-05-13T05:36:32.052Z,61.55
2018-05-13T05:37:32.089Z,60.31
2018-05-13T05:39:32.153Z,59.57
2018-05-13T05:40:32.161Z,59.11
2018-05-13T05:41:32.214Z,56.87
2018-05-13T05:42:31.970Z,57.97
2018-05-13T05:44:32.287Z,55.86
2018-05-13T05:45:32.346Z,55.66
2018-05-13T05:46:32.353Z,55.86
2018-05-13T05:47:32.411Z,54.72
2018-05-13T05:48:32.613Z,54.69
2018-05-13T05:49:32.451Z,56.05
2018-05-13T05:50:32.498Z,56.03
2018-05-13T05:51:47.178Z,54.21
2018-05-13T05:52:32.571Z,54.03
2018-05-13T05:53:32.585Z,55.01
2018-05-13T05:54:32.634Z,54.5
2018-05-13T05:55:32.671Z,53.75
2018-05-13T05:56:32.423Z,52.89
2018-05-13T05:57:32.734Z,52.44
2018-05-13T05:58:32.757Z,50.99
2018-05-13T05:59:32.535Z,51.43
2018-05-13T06:00:32.819Z,53.91
2018-05-13T06:01:32.604Z,54.83
2018-05-13T06:02:32.897Z,55.22
2018-05-13T06:03:32.934Z,54.38
2018-05-13T06:04:32.950Z,53.23
2018-05-13T06:05:32.989Z,53.26
2018-05-13T06:06:33.028Z,51.9
2018-05-13T06:07:47.717Z,51.53
2018-05-13T06:08:33.094Z,51.82
2018-05-13T06:09:33.135Z,53.26
2018-05-13T06:10:33.152Z,54.21
2018-05-13T06:11:33.203Z,52.75
2018-05-13T06:12:33.219Z,52.65
2018-05-13T06:13:33.271Z,52.36
2018-05-13T06:14:33.289Z,51.41
2018-05-13T06:16:33.369Z,52.09
2018-05-13T06:17:33.406Z,51.12
2018-05-13T06:18:33.180Z,51.02
2018-05-13T06:19:33.533Z,52.06
2018-05-13T06:20:33.509Z,51.97
2018-05-13T06:21:33.527Z,52.06
2018-05-13T06:22:48.224Z,51.39
2018-05-13T06:23:33.349Z,51.31
2018-05-13T06:24:33.628Z,51.02
2018-05-13T06:25:33.680Z,51.02
2018-05-13T06:26:33.715Z,50.65
2018-05-13T06:27:33.750Z,50.95
2018-05-13T06:28:33.774Z,50.82
2018-05-13T06:30:33.853Z,50.16
2018-05-13T06:31:33.614Z,49.78
2018-05-13T06:32:33.929Z,50.26
2018-05-13T06:33:33.941Z,50.51
2018-05-13T06:34:33.997Z,51.84
2018-05-13T06:35:34.013Z,51.09
2018-05-13T06:36:34.055Z,50.53
2018-05-13T06:37:34.099Z,49.97
2018-05-13T06:38:33.854Z,50.82
2018-05-13T06:40:34.200Z,50.99
2018-05-13T06:41:34.217Z,50.9
2018-05-13T06:42:34.268Z,50.87
2018-05-13T06:43:34.309Z,50.04
2018-05-13T06:44:34.076Z,49.95
2018-05-13T06:45:34.098Z,50.6
2018-05-13T06:46:34.394Z,50.41
2018-05-13T06:47:34.186Z,50.34
2018-05-13T06:48:34.480Z,49.85
2018-05-13T06:49:34.250Z,49.27
2018-05-13T06:50:34.530Z,48.41
2018-05-13T06:51:34.754Z,49
2018-05-13T06:52:34.599Z,49.68
2018-05-13T06:53:34.389Z,49.39
2018-05-13T06:54:49.334Z,49.49
2018-05-13T06:55:34.723Z,50.04
2018-05-13T06:56:34.759Z,49.58
2018-05-13T06:57:34.522Z,48.44
2018-05-13T06:58:34.552Z,48.17
2018-05-13T06:59:34.852Z,47.75
2018-05-13T07:00:34.906Z,47.68
2018-05-13T07:02:34.971Z,46.8
2018-05-13T07:03:34.995Z,46.8
2018-05-13T07:04:35.034Z,46.04
2018-05-13T07:05:34.803Z,45.85
2018-05-13T07:06:35.111Z,47.31
2018-05-13T07:07:35.128Z,46.04
2018-05-13T07:08:34.918Z,45
2018-05-13T07:09:35.198Z,44.04
2018-05-13T07:10:49.898Z,43.96
2018-05-13T07:11:35.286Z,44.24
2018-05-13T07:12:35.322Z,44.26
2018-05-13T07:13:35.362Z,41.64
2018-05-13T07:14:35.383Z,42.54
2018-05-13T07:15:35.430Z,42.74
2018-05-13T07:16:35.624Z,43.01
2018-05-13T07:17:35.492Z,42.89
2018-05-13T07:18:35.266Z,43.16
2018-05-13T07:19:35.296Z,42.77
2018-05-13T07:20:35.593Z,43.82
2018-05-13T07:22:35.668Z,43.16
2018-05-13T07:23:35.717Z,42.87
2018-05-13T07:24:35.754Z,43.16
2018-05-13T07:25:35.792Z,41.91
2018-05-13T07:26:50.470Z,41.93
2018-05-13T07:27:35.583Z,42.87
2018-05-13T07:28:35.905Z,42.77
2018-05-13T07:29:35.916Z,42.94
2018-05-13T07:30:35.964Z,44.14
2018-05-13T07:31:36.007Z,43.55
2018-05-13T07:32:35.764Z,42.4
2018-05-13T07:33:35.813Z,43.08
2018-05-13T07:34:36.106Z,42.87
2018-05-13T07:36:35.922Z,41.93
2018-05-13T07:37:36.208Z,40.41
2018-05-13T07:38:36.258Z,41.02
2018-05-13T07:39:36.278Z,40.33
2018-05-13T07:40:36.329Z,40.33
2018-05-13T07:41:36.365Z,39.74
2018-05-13T07:42:51.046Z,39.07
2018-05-13T07:43:36.438Z,39.27
2018-05-13T07:44:36.458Z,39.76
2018-05-13T07:45:36.510Z,38.2
2018-05-13T07:46:36.528Z,38.88
2018-05-13T07:47:36.581Z,38.59
2018-05-13T07:50:36.692Z,39.25
2018-05-13T07:51:36.711Z,39.23
2018-05-13T07:53:36.787Z,39.12
2018-05-13T07:54:36.838Z,40.31
2018-05-13T07:55:36.869Z,39.84
2018-05-13T07:56:36.647Z,38.78
2018-05-13T07:57:51.676Z,38.08
2018-05-13T07:58:36.982Z,38.67
2018-05-13T07:59:37.000Z,38.65
2018-05-13T08:00:37.058Z,38.37
2018-05-13T08:01:37.073Z,38.57
2018-05-13T08:02:37.112Z,37.59
2018-05-13T08:03:36.902Z,38.84
2018-05-13T08:04:37.183Z,38.55
2018-05-13T08:05:37.238Z,38.06
2018-05-13T08:06:37.000Z,38.82
2018-05-13T08:07:37.048Z,38.61
2018-05-13T08:08:37.327Z,38.59
2018-05-13T08:09:37.362Z,39.28
2018-05-13T08:10:37.418Z,38.3
2018-05-13T08:11:37.179Z,37.43
2018-05-13T08:12:37.226Z,37.08
2018-05-13T08:13:37.511Z,36.98
2018-05-13T08:14:37.560Z,38.32
2018-05-13T08:15:37.577Z,37.43
2018-05-13T08:16:37.632Z,36.94
2018-05-13T08:17:37.650Z,37.21
2018-05-13T08:18:37.704Z,38.67
2018-05-13T08:19:37.734Z,38.24
2018-05-13T08:20:37.929Z,38.55
2018-05-13T08:21:37.533Z,38.16
2018-05-13T08:22:37.572Z,37.71
2018-05-13T08:24:37.645Z,37.43
2018-05-13T08:25:37.934Z,36.4
2018-05-13T08:26:37.991Z,35.44
2018-05-13T08:27:38.004Z,34.55
2018-05-13T08:28:38.067Z,35.34
2018-05-13T08:29:52.742Z,35.44
2018-05-13T08:30:38.112Z,35.73
2018-05-13T08:31:38.161Z,34.36
2018-05-13T08:32:38.179Z,34.36
2018-05-13T08:33:37.971Z,34.55
2018-05-13T08:34:38.262Z,34.84
2018-05-13T08:35:38.305Z,35.22
2018-05-13T08:36:38.324Z,35.32
2018-05-13T08:37:38.376Z,35.13
2018-05-13T08:38:38.394Z,34.24
2018-05-13T08:39:38.273Z,33.87
2018-05-13T08:40:38.462Z,33.69
2018-05-13T08:41:38.519Z,33.89
2018-05-13T08:42:38.552Z,34.36
2018-05-13T08:43:38.573Z,34.93
2018-05-13T08:44:38.355Z,34.54
2018-05-13T08:45:53.303Z,35.03
2018-05-13T08:46:38.698Z,34.74
2018-05-13T08:47:38.710Z,35.6
2018-05-13T08:48:38.962Z,35.22
2018-05-13T08:49:38.801Z,34.44
2018-05-13T08:50:38.826Z,33.87
2018-05-13T08:51:38.851Z,34.06
2018-05-13T08:52:38.918Z,34.84
2018-05-13T08:53:38.924Z,32.9
2018-05-13T08:54:38.979Z,33.04
2018-05-13T08:55:39.069Z,32.06
2018-05-13T08:57:39.077Z,32.07
2018-05-13T08:58:39.117Z,31.86
2018-05-13T08:59:39.298Z,32.64
2018-05-13T09:00:39.168Z,31.96
2018-05-13T09:01:53.867Z,31.96
2018-05-13T09:02:39.237Z,32.22
2018-05-13T09:03:39.075Z,32.1
2018-05-13T09:04:39.306Z,32.01
2018-05-13T09:05:39.098Z,32.68
2018-05-13T09:07:39.430Z,31.62
2018-05-13T09:08:39.466Z,32.09
2018-05-13T09:09:39.496Z,31.9
2018-05-13T09:10:39.613Z,31.6
2018-05-13T09:11:39.566Z,31.6
2018-05-13T09:12:39.582Z,31.96
2018-05-13T09:13:39.639Z,32.75
2018-05-13T09:14:39.652Z,33.41
2018-05-13T09:15:39.706Z,33.04
2018-05-13T09:16:39.738Z,32.65
2018-05-13T09:17:54.423Z,31.78
2018-05-13T09:18:39.796Z,32.17
2018-05-13T09:19:39.841Z,32.82
2018-05-13T09:20:40.027Z,32.71
2018-05-13T09:21:39.910Z,33.01
2018-05-13T09:22:39.925Z,32.82
2018-05-13T09:23:39.977Z,32.92
2018-05-13T09:24:39.993Z,32.86
2018-05-13T09:25:40.047Z,32.78
2018-05-13T09:26:40.258Z,31.99
2018-05-13T09:28:40.131Z,31.8
2018-05-13T09:29:40.272Z,31.21
2018-05-13T09:30:39.949Z,31.2
2018-05-13T09:31:40.237Z,31
2018-05-13T09:32:54.935Z,31.78
2018-05-13T09:33:40.302Z,30.82
2018-05-13T09:34:40.351Z,31.51
2018-05-13T09:35:40.370Z,31.88
2018-05-13T09:36:40.406Z,32.07
2018-05-13T09:37:40.436Z,31.01
2018-05-13T09:38:40.485Z,30.8
2018-05-13T09:39:40.528Z,31.48
2018-05-13T09:40:40.541Z,31.59
2018-05-13T09:41:40.587Z,30.72
2018-05-13T09:42:40.602Z,31.01
2018-05-13T09:43:40.661Z,30.93
2018-05-13T09:44:40.670Z,31.6
2018-05-13T09:45:40.718Z,31.48
2018-05-13T09:46:40.483Z,32.06
2018-05-13T09:47:40.775Z,31.57
2018-05-13T09:48:40.824Z,31.78
2018-05-13T09:49:40.868Z,32.07
2018-05-13T09:50:40.876Z,30.9
2018-05-13T09:51:40.923Z,30.43
2018-05-13T09:52:40.937Z,29.84
2018-05-13T09:53:40.987Z,30.23
2018-05-13T09:54:41.005Z,29.93
2018-05-13T09:55:40.792Z,30
2018-05-13T09:56:41.077Z,31
2018-05-13T09:57:41.293Z,30.71
2018-05-13T09:58:41.137Z,30.51
2018-05-13T09:59:40.912Z,30.41
2018-05-13T10:00:41.215Z,30.71
2018-05-13T10:01:41.257Z,30.69
2018-05-13T10:02:41.394Z,31.67
2018-05-13T10:03:41.044Z,29.93
2018-05-13T10:04:56.001Z,30.59
2018-05-13T10:05:41.368Z,30.87
2018-05-13T10:06:41.403Z,30.87
2018-05-13T10:07:41.432Z,31.93
2018-05-13T10:08:41.483Z,31.82
2018-05-13T10:09:41.612Z,31.64
2018-05-13T10:10:41.531Z,31.07
2018-05-13T10:11:41.589Z,30.79
2018-05-13T10:13:41.644Z,30.3
2018-05-13T10:14:41.414Z,30.12
2018-05-13T10:15:41.433Z,30.71
2018-05-13T10:16:41.724Z,29.35
2018-05-13T10:17:41.774Z,29.56
2018-05-13T10:18:41.792Z,28.69
2018-05-13T10:19:41.844Z,28.39
2018-05-13T10:20:56.515Z,28.58
2018-05-13T10:21:41.893Z,28.47
2018-05-13T10:22:41.919Z,28.94
2018-05-13T10:23:41.957Z,28.93
2018-05-13T10:24:41.999Z,29.91
2018-05-13T10:25:42.018Z,30.48
2018-05-13T10:26:42.064Z,30.76
2018-05-13T10:27:42.077Z,30.74
2018-05-13T10:28:42.133Z,31.8
2018-05-13T10:29:42.143Z,31.59
2018-05-13T10:30:42.173Z,32.06
2018-05-13T10:31:41.957Z,31.85
2018-05-13T10:32:42.256Z,32.82
2018-05-13T10:33:42.292Z,33.43
2018-05-13T10:34:42.303Z,31.48
2018-05-13T10:35:42.347Z,31.85
2018-05-13T10:36:57.028Z,31.95
2018-05-13T10:37:42.417Z,32.42
2018-05-13T10:38:42.430Z,32.42
2018-05-13T10:39:42.485Z,31.46
2018-05-13T10:40:42.495Z,32.23
2018-05-13T10:41:42.555Z,32.13
2018-05-13T10:42:42.563Z,32.24
2018-05-13T10:43:42.608Z,32.24
2018-05-13T10:44:42.620Z,33.12
2018-05-13T10:45:42.674Z,32.05
2018-05-13T10:46:42.685Z,32.31
2018-05-13T10:47:42.731Z,33.48
2018-05-13T10:48:42.745Z,33.58
2018-05-13T10:49:42.794Z,32.99
2018-05-13T10:50:42.825Z,33.58
2018-05-13T10:51:42.841Z,32.7
2018-05-13T10:52:57.535Z,33.07
2018-05-13T10:53:42.905Z,33.07
2018-05-13T10:54:42.947Z,33.36
2018-05-13T10:55:42.965Z,32.49
2018-05-13T10:56:43.006Z,31.81
2018-05-13T10:57:43.148Z,32.49
2018-05-13T10:58:43.072Z,32.68
2018-05-13T10:59:43.083Z,32.29
2018-05-13T11:00:42.871Z,32.2
2018-05-13T11:01:43.156Z,32.97
2018-05-13T11:02:43.183Z,32.59
2018-05-13T11:04:43.314Z,31.41
2018-05-13T11:05:43.292Z,31.41
2018-05-13T11:06:43.037Z,31.61
2018-05-13T11:07:57.993Z,32.29
2018-05-13T11:08:43.097Z,32.76
2018-05-13T11:09:43.402Z,32.59
2018-05-13T11:10:43.420Z,32.97
2018-05-13T11:11:43.465Z,32.67
2018-05-13T11:12:43.482Z,33.26
2018-05-13T11:13:43.525Z,33.46
2018-05-13T11:14:43.541Z,33.65
2018-05-13T11:16:43.608Z,33.65
2018-05-13T11:18:43.410Z,33.18
2018-05-13T11:19:43.683Z,32.02
2018-05-13T11:20:43.886Z,31.92
2018-05-13T11:21:43.749Z,33.07
2018-05-13T11:22:43.779Z,32.59
2018-05-13T11:23:43.545Z,31.81
2018-05-13T11:24:43.851Z,32.37
2018-05-13T11:25:43.882Z,33.15
2018-05-13T11:26:43.974Z,33.83
2018-05-13T11:27:43.935Z,32.67
2018-05-13T11:28:43.955Z,33.44
2018-05-13T11:29:44.005Z,33.06
2018-05-13T11:30:44.008Z,33.15
2018-05-13T11:31:44.056Z,31.71
2018-05-13T11:32:44.081Z,32.68
2018-05-13T11:33:44.160Z,33.36
2018-05-13T11:34:44.128Z,32.39
2018-05-13T11:35:44.177Z,32.39
2018-05-13T11:36:44.194Z,31.51
2018-05-13T11:37:44.215Z,32.39
2018-05-13T11:38:44.247Z,32.78
2018-05-13T11:39:58.941Z,31.61
2018-05-13T11:40:44.304Z,31.81
2018-05-13T11:41:44.086Z,31.13
2018-05-13T11:42:44.364Z,31.41
2018-05-13T11:43:44.408Z,31.4
2018-05-13T11:44:44.421Z,31.3
2018-05-13T11:45:44.449Z,32.57
2018-05-13T11:46:44.533Z,33.06
2018-05-13T11:47:44.523Z,32.87
2018-05-13T11:49:44.303Z,31.61
2018-05-13T11:50:44.611Z,31.13
2018-05-13T11:51:44.621Z,31.88
2018-05-13T11:52:44.661Z,31.5
2018-05-13T11:53:44.421Z,32.08
2018-05-13T11:54:44.726Z,31.5
2018-05-13T11:55:59.405Z,32.96
2018-05-13T11:56:44.767Z,32.18
2018-05-13T11:58:44.824Z,31.7
2018-05-13T11:59:44.859Z,32.28
2018-05-13T12:00:44.628Z,31.6
2018-05-13T12:01:44.935Z,31.98
2018-05-13T12:04:44.740Z,31.5
2018-05-13T12:05:44.781Z,31.5
2018-05-13T12:06:45.071Z,31.19
2018-05-13T12:07:45.104Z,32.17
2018-05-13T12:08:45.115Z,32.65
2018-05-13T12:09:45.143Z,32.67
2018-05-13T12:10:44.926Z,32.76
2018-05-13T12:11:59.868Z,32.97
2018-05-13T12:12:45.253Z,32.59
2018-05-13T12:13:45.263Z,32
2018-05-13T12:14:45.304Z,31.98
2018-05-13T12:16:45.344Z,30.72
2018-05-13T12:17:45.123Z,30.82
2018-05-13T12:18:45.157Z,30.43
2018-05-13T12:19:45.448Z,30.82
2018-05-13T12:20:45.460Z,30.33
2018-05-13T12:21:45.512Z,30.43
2018-05-13T12:22:45.516Z,30.64
2018-05-13T12:23:45.561Z,31.51
2018-05-13T12:24:45.315Z,31.13
2018-05-13T12:25:45.628Z,30.62
2018-05-13T12:26:45.641Z,31.3
2018-05-13T12:28:00.326Z,30.43
2018-05-13T12:28:45.690Z,30.33
2018-05-13T12:29:45.736Z,30.24
2018-05-13T12:30:45.492Z,30.24
2018-05-13T12:31:45.777Z,31.58
2018-05-13T12:32:45.805Z,31.58
2018-05-13T12:34:45.601Z,31.29
2018-05-13T12:35:45.648Z,30.8
2018-05-13T12:36:45.658Z,31.1
2018-05-13T12:37:45.967Z,31.77
2018-05-13T12:38:45.978Z,32.45
2018-05-13T12:39:46.014Z,32.94
2018-05-13T12:40:46.033Z,31.77
2018-05-13T12:41:46.080Z,30.8
2018-05-13T12:43:00.756Z,28.47
2018-05-13T12:43:46.119Z,29.15
2018-05-13T12:44:45.897Z,30.12
2018-05-13T12:45:46.175Z,29.54
2018-05-13T12:46:46.221Z,30.02
2018-05-13T12:47:46.234Z,30.43
2018-05-13T12:48:46.015Z,30.04
2018-05-13T12:49:46.307Z,29.06
2018-05-13T12:50:46.064Z,29.46
2018-05-13T12:51:46.346Z,28.88
2018-05-13T12:52:46.374Z,29.26
2018-05-13T12:53:46.430Z,29.65
2018-05-13T12:54:46.435Z,30.41
2018-05-13T12:55:46.459Z,30.61
2018-05-13T12:56:46.507Z,30.51
2018-05-13T12:57:46.517Z,30.41
2018-05-13T12:58:46.565Z,31.37
2018-05-13T12:59:46.580Z,31.68
2018-05-13T13:00:46.619Z,30.9
2018-05-13T13:01:46.640Z,31.1
2018-05-13T13:02:46.662Z,31.48
2018-05-13T13:03:46.883Z,31.58
2018-05-13T13:04:46.773Z,31.38
2018-05-13T13:05:46.786Z,32.45
2018-05-13T13:06:46.779Z,32.26
2018-05-13T13:07:47.011Z,32.45
2018-05-13T13:08:46.833Z,32.28
2018-05-13T13:09:46.874Z,32.35
2018-05-13T13:10:46.627Z,31.6
2018-05-13T13:11:46.674Z,32.84
2018-05-13T13:12:46.688Z,32.18
2018-05-13T13:13:46.991Z,31.98
2018-05-13T13:15:01.661Z,31.98
2018-05-13T13:15:47.106Z,32.26
2018-05-13T13:17:46.825Z,32.75
2018-05-13T13:18:47.130Z,32.84
2018-05-13T13:19:47.154Z,31.77
2018-05-13T13:20:47.268Z,32.26
2018-05-13T13:22:47.243Z,32.45
2018-05-13T13:23:46.996Z,32.65
2018-05-13T13:24:47.300Z,32.07
2018-05-13T13:25:47.317Z,32.84
2018-05-13T13:26:47.360Z,34.01
2018-05-13T13:27:47.109Z,33.43
2018-05-13T13:28:47.433Z,32.96
2018-05-13T13:29:47.439Z,32.67
2018-05-13T13:31:02.119Z,32.84
2018-05-13T13:31:47.483Z,32.94
2018-05-13T13:32:47.250Z,32.65
2018-05-13T13:33:47.292Z,32.94
2018-05-13T13:34:47.576Z,33.14
2018-05-13T13:35:47.348Z,32.75
2018-05-13T13:36:47.364Z,33.33
2018-05-13T13:37:47.668Z,33.14
2018-05-13T13:38:47.685Z,33.02
2018-05-13T13:39:47.712Z,33.12
2018-05-13T13:40:47.748Z,33.41
2018-05-13T13:41:47.783Z,33.04
2018-05-13T13:42:47.810Z,33.53